sensor_id;sensor_type;location;lat;lon;timestamp;pressure;altitude;pressure_sealevel;temperature;humidity
71361;BME280;59166;48.908;1.870;2023-12-14T00:04:21;99855.56;;;7.74;100.00
71361;BME280;59166;48.908;1.870;2023-12-14T00:12:13;99875.75;;;7.77;100.00
71361;BME280;59166;48.908;1.870;2023-12-14T00:17:13;99878.19;;;7.78;100.00
71361;BME280;59166;48.908;1.870;2023-12-14T00:22:14;99885.44;;;7.78;100.00
71361;BME280;59166;48.908;1.870;2023-12-14T00:27:16;99899.44;;;7.80;100.00
71361;BME280;59166;48.908;1.870;2023-12-14T00:37:54;99913.34;;;7.72;100.00
71361;BME280;59166;48.908;1.870;2023-12-14T00:42:56;99921.31;;;7.67;100.00
71361;BME280;59166;48.908;1.870;2023-12-14T00:47:57;99925.66;;;7.68;100.00
71361;BME280;59166;48.908;1.870;2023-12-14T00:52:58;99933.94;;;7.66;100.00
71361;BME280;59166;48.908;1.870;2023-12-14T00:58:00;99945.53;;;7.67;100.00
71361;BME280;59166;48.908;1.870;2023-12-14T01:03:01;99954.91;;;7.64;100.00
71361;BME280;59166;48.908;1.870;2023-12-14T01:08:02;99963.78;;;7.65;100.00
71361;BME280;59166;48.908;1.870;2023-12-14T01:13:05;99976.69;;;7.63;100.00
71361;BME280;59166;48.908;1.870;2023-12-14T01:18:05;99970.16;;;7.59;100.00
71361;BME280;59166;48.908;1.870;2023-12-14T01:23:06;99982.69;;;7.53;100.00
71361;BME280;59166;48.908;1.870;2023-12-14T01:28:08;100001.28;;;7.55;100.00
71361;BME280;59166;48.908;1.870;2023-12-14T01:33:09;100019.03;;;7.56;100.00
71361;BME280;59166;48.908;1.870;2023-12-14T01:38:10;100017.91;;;7.52;100.00
71361;BME280;59166;48.908;1.870;2023-12-14T01:43:13;100031.56;;;7.50;100.00
71361;BME280;59166;48.908;1.870;2023-12-14T01:48:13;100028.56;;;7.47;100.00
71361;BME280;59166;48.908;1.870;2023-12-14T01:53:14;100046.41;;;7.53;100.00
71361;BME280;59166;48.908;1.870;2023-12-14T01:58:16;100064.97;;;7.54;100.00
71361;BME280;59166;48.908;1.870;2023-12-14T02:03:17;100067.59;;;7.49;100.00
71361;BME280;59166;48.908;1.870;2023-12-14T02:08:18;100075.56;;;7.44;100.00
71361;BME280;59166;48.908;1.870;2023-12-14T02:13:20;100079.31;;;7.43;100.00
71361;BME280;59166;48.908;1.870;2023-12-14T02:18:21;100073.94;;;7.43;100.00
71361;BME280;59166;48.908;1.870;2023-12-14T02:23:23;100084.50;;;7.50;100.00
71361;BME280;59166;48.908;1.870;2023-12-14T02:28:24;100082.66;;;7.50;100.00
71361;BME280;59166;48.908;1.870;2023-12-14T02:33:25;100100.41;;;7.51;100.00
71361;BME280;59166;48.908;1.870;2023-12-14T02:38:27;100096.09;;;7.50;100.00
71361;BME280;59166;48.908;1.870;2023-12-14T02:43:28;100108.47;;;7.51;100.00
71361;BME280;59166;48.908;1.870;2023-12-14T02:48:29;100123.56;;;7.52;100.00
71361;BME280;59166;48.908;1.870;2023-12-14T02:53:31;100137.81;;;7.53;100.00
71361;BME280;59166;48.908;1.870;2023-12-14T02:58:32;100146.44;;;7.55;100.00
71361;BME280;59166;48.908;1.870;2023-12-14T03:03:33;100148.22;;;7.49;100.00
71361;BME280;59166;48.908;1.870;2023-12-14T03:08:35;100152.78;;;7.49;100.00
71361;BME280;59166;48.908;1.870;2023-12-14T03:13:36;100172.41;;;7.49;100.00
71361;BME280;59166;48.908;1.870;2023-12-14T03:18:37;100178.84;;;7.48;100.00
71361;BME280;59166;48.908;1.870;2023-12-14T03:23:39;100184.69;;;7.45;100.00
71361;BME280;59166;48.908;1.870;2023-12-14T03:28:40;100191.06;;;7.39;100.00
71361;BME280;59166;48.908;1.870;2023-12-14T03:33:42;100190.72;;;7.36;100.00
71361;BME280;59166;48.908;1.870;2023-12-14T03:38:44;100203.09;;;7.37;100.00
71361;BME280;59166;48.908;1.870;2023-12-14T03:43:45;100217.66;;;7.41;100.00
71361;BME280;59166;48.908;1.870;2023-12-14T03:48:46;100225.50;;;7.42;100.00
71361;BME280;59166;48.908;1.870;2023-12-14T03:53:48;100233.56;;;7.42;100.00
71361;BME280;59166;48.908;1.870;2023-12-14T03:58:49;100243.84;;;7.45;100.00
71361;BME280;59166;48.908;1.870;2023-12-14T04:03:50;100244.31;;;7.42;100.00
71361;BME280;59166;48.908;1.870;2023-12-14T04:08:52;100272.09;;;7.48;100.00
71361;BME280;59166;48.908;1.870;2023-12-14T04:13:53;100293.59;;;7.48;100.00
71361;BME280;59166;48.908;1.870;2023-12-14T04:18:54;100300.50;;;7.44;100.00
71361;BME280;59166;48.908;1.870;2023-12-14T04:23:56;100317.78;;;7.48;100.00
71361;BME280;59166;48.908;1.870;2023-12-14T04:28:57;100332.75;;;7.44;100.00
71361;BME280;59166;48.908;1.870;2023-12-14T04:33:58;100338.94;;;7.44;100.00
71361;BME280;59166;48.908;1.870;2023-12-14T04:39:00;100351.81;;;7.42;100.00
71361;BME280;59166;48.908;1.870;2023-12-14T04:44:01;100362.22;;;7.39;100.00
71361;BME280;59166;48.908;1.870;2023-12-14T04:49:02;100372.50;;;7.42;100.00
71361;BME280;59166;48.908;1.870;2023-12-14T04:54:04;100384.53;;;7.39;100.00
71361;BME280;59166;48.908;1.870;2023-12-14T04:59:05;100383.13;;;7.37;100.00
71361;BME280;59166;48.908;1.870;2023-12-14T05:04:06;100392.47;;;7.34;100.00
71361;BME280;59166;48.908;1.870;2023-12-14T05:09:08;100398.69;;;7.35;100.00
71361;BME280;59166;48.908;1.870;2023-12-14T05:14:09;100407.22;;;7.32;100.00
71361;BME280;59166;48.908;1.870;2023-12-14T05:19:10;100413.75;;;7.36;100.00
71361;BME280;59166;48.908;1.870;2023-12-14T05:24:12;100407.91;;;7.39;100.00
71361;BME280;59166;48.908;1.870;2023-12-14T05:29:13;100429.41;;;7.39;100.00
71361;BME280;59166;48.908;1.870;2023-12-14T05:34:14;100434.19;;;7.37;100.00
71361;BME280;59166;48.908;1.870;2023-12-14T05:39:16;100442.16;;;7.32;100.00
71361;BME280;59166;48.908;1.870;2023-12-14T05:44:17;100448.56;;;7.31;100.00
71361;BME280;59166;48.908;1.870;2023-12-14T05:49:17;100457.56;;;7.24;100.00
71361;BME280;59166;48.908;1.870;2023-12-14T05:54:20;100460.81;;;7.26;100.00
71361;BME280;59166;48.908;1.870;2023-12-14T05:59:20;100478.38;;;7.29;100.00
71361;BME280;59166;48.908;1.870;2023-12-14T06:04:21;100496.34;;;7.28;100.00
71361;BME280;59166;48.908;1.870;2023-12-14T06:09:24;100501.59;;;7.23;100.00
71361;BME280;59166;48.908;1.870;2023-12-14T06:14:24;100516.44;;;7.26;100.00
71361;BME280;59166;48.908;1.870;2023-12-14T06:19:25;100523.91;;;7.24;100.00
71361;BME280;59166;48.908;1.870;2023-12-14T06:24:28;100548.09;;;7.24;100.00
71361;BME280;59166;48.908;1.870;2023-12-14T06:29:29;100555.59;;;7.22;100.00
71361;BME280;59166;48.908;1.870;2023-12-14T06:34:30;100563.97;;;7.14;100.00
71361;BME280;59166;48.908;1.870;2023-12-14T06:39:35;100596.09;;;7.20;100.00
71361;BME280;59166;48.908;1.870;2023-12-14T06:44:36;100601.94;;;7.17;100.00
71361;BME280;59166;48.908;1.870;2023-12-14T06:49:40;100613.88;;;7.21;100.00
71361;BME280;59166;48.908;1.870;2023-12-14T06:54:43;100607.44;;;7.22;100.00
71361;BME280;59166;48.908;1.870;2023-12-14T06:59:44;100617.13;;;7.23;100.00
71361;BME280;59166;48.908;1.870;2023-12-14T07:04:45;100619.72;;;7.18;100.00
71361;BME280;59166;48.908;1.870;2023-12-14T07:09:47;100642.72;;;7.26;100.00
71361;BME280;59166;48.908;1.870;2023-12-14T07:14:48;100649.00;;;7.20;100.00
71361;BME280;59166;48.908;1.870;2023-12-14T07:19:51;100660.94;;;7.24;100.00
71361;BME280;59166;48.908;1.870;2023-12-14T07:24:53;100673.44;;;7.18;100.00
71361;BME280;59166;48.908;1.870;2023-12-14T07:29:54;100686.25;;;7.16;100.00
71361;BME280;59166;48.908;1.870;2023-12-14T07:34:55;100707.66;;;7.23;100.00
71361;BME280;59166;48.908;1.870;2023-12-14T07:39:58;100717.59;;;7.22;100.00
71361;BME280;59166;48.908;1.870;2023-12-14T07:44:58;100726.09;;;7.19;100.00
71361;BME280;59166;48.908;1.870;2023-12-14T07:49:59;100736.63;;;7.21;100.00
71361;BME280;59166;48.908;1.870;2023-12-14T07:55:02;100748.66;;;7.18;100.00
71361;BME280;59166;48.908;1.870;2023-12-14T08:00:03;100753.44;;;7.16;100.00
71361;BME280;59166;48.908;1.870;2023-12-14T08:05:05;100756.56;;;7.13;100.00
71361;BME280;59166;48.908;1.870;2023-12-14T08:10:08;100756.56;;;7.13;100.00
71361;BME280;59166;48.908;1.870;2023-12-14T08:15:09;100770.38;;;7.17;100.00
71361;BME280;59166;48.908;1.870;2023-12-14T08:20:10;100790.75;;;7.24;100.00
71361;BME280;59166;48.908;1.870;2023-12-14T08:25:14;100789.72;;;7.25;100.00
71361;BME280;59166;48.908;1.870;2023-12-14T08:30:15;100798.34;;;7.27;100.00
71361;BME280;59166;48.908;1.870;2023-12-14T08:35:16;100811.19;;;7.25;100.00
71361;BME280;59166;48.908;1.870;2023-12-14T08:40:18;100808.94;;;7.22;100.00
71361;BME280;59166;48.908;1.870;2023-12-14T08:45:19;100821.22;;;7.18;100.00
71361;BME280;59166;48.908;1.870;2023-12-14T08:50:19;100836.34;;;7.13;100.00
71361;BME280;59166;48.908;1.870;2023-12-14T08:55:22;100838.19;;;7.12;100.00
71361;BME280;59166;48.908;1.870;2023-12-14T09:00:23;100847.69;;;7.15;100.00
71361;BME280;59166;48.908;1.870;2023-12-14T09:05:24;100847.00;;;7.19;100.00
71361;BME280;59166;48.908;1.870;2023-12-14T09:10:26;100851.13;;;7.22;100.00
71361;BME280;59166;48.908;1.870;2023-12-14T09:15:27;100865.38;;;7.22;100.00
71361;BME280;59166;48.908;1.870;2023-12-14T09:20:28;100877.09;;;7.28;100.00
71361;BME280;59166;48.908;1.870;2023-12-14T09:25:30;100882.03;;;7.31;100.00
71361;BME280;59166;48.908;1.870;2023-12-14T09:30:31;100897.69;;;7.34;100.00
71361;BME280;59166;48.908;1.870;2023-12-14T09:35:31;100899.28;;;7.42;100.00
71361;BME280;59166;48.908;1.870;2023-12-14T09:40:34;100911.59;;;7.49;100.00
71361;BME280;59166;48.908;1.870;2023-12-14T09:45:35;100909.84;;;7.55;100.00
71361;BME280;59166;48.908;1.870;2023-12-14T09:50:38;100916.72;;;7.51;100.00
71361;BME280;59166;48.908;1.870;2023-12-14T09:55:41;100919.03;;;7.47;100.00
71361;BME280;59166;48.908;1.870;2023-12-14T10:00:41;100931.38;;;7.55;100.00
71361;BME280;59166;48.908;1.870;2023-12-14T10:05:42;100933.53;;;7.64;100.00
71361;BME280;59166;48.908;1.870;2023-12-14T10:10:47;100938.50;;;7.79;100.00
71361;BME280;59166;48.908;1.870;2023-12-14T10:15:48;100958.81;;;7.93;100.00
71361;BME280;59166;48.908;1.870;2023-12-14T10:20:49;100967.53;;;8.07;100.00
71361;BME280;59166;48.908;1.870;2023-12-14T10:25:52;100976.06;;;8.34;100.00
71361;BME280;59166;48.908;1.870;2023-12-14T10:30:53;100986.47;;;8.30;100.00
71361;BME280;59166;48.908;1.870;2023-12-14T10:35:54;100994.19;;;8.26;100.00
71361;BME280;59166;48.908;1.870;2023-12-14T10:40:58;101000.78;;;8.12;100.00
71361;BME280;59166;48.908;1.870;2023-12-14T10:45:59;101010.22;;;8.03;100.00
71361;BME280;59166;48.908;1.870;2023-12-14T10:51:02;101015.22;;;8.00;100.00
71361;BME280;59166;48.908;1.870;2023-12-14T10:56:05;101020.25;;;7.96;100.00
71361;BME280;59166;48.908;1.870;2023-12-14T11:01:07;101022.03;;;8.02;100.00
71361;BME280;59166;48.908;1.870;2023-12-14T11:06:20;101033.28;;;8.11;100.00
71361;BME280;59166;48.908;1.870;2023-12-14T11:11:27;101034.25;;;8.16;100.00
71361;BME280;59166;48.908;1.870;2023-12-14T11:16:28;101036.72;;;8.18;100.00
71361;BME280;59166;48.908;1.870;2023-12-14T11:21:29;101043.28;;;8.22;100.00
71361;BME280;59166;48.908;1.870;2023-12-14T11:26:31;101045.16;;;8.21;100.00
71361;BME280;59166;48.908;1.870;2023-12-14T11:31:32;101039.88;;;8.15;100.00
71361;BME280;59166;48.908;1.870;2023-12-14T11:36:33;101047.19;;;8.08;100.00
71361;BME280;59166;48.908;1.870;2023-12-14T11:41:35;101047.88;;;8.03;100.00
71361;BME280;59166;48.908;1.870;2023-12-14T11:46:36;101048.84;;;8.09;100.00
71361;BME280;59166;48.908;1.870;2023-12-14T11:51:37;101056.09;;;8.08;100.00
71361;BME280;59166;48.908;1.870;2023-12-14T11:56:39;101055.50;;;8.06;100.00
71361;BME280;59166;48.908;1.870;2023-12-14T12:01:55;101056.00;;;8.15;100.00
71361;BME280;59166;48.908;1.870;2023-12-14T12:07:01;101057.56;;;8.22;100.00
71361;BME280;59166;48.908;1.870;2023-12-14T12:12:05;101043.22;;;8.28;100.00
71361;BME280;59166;48.908;1.870;2023-12-14T12:17:06;101037.53;;;8.37;100.00
71361;BME280;59166;48.908;1.870;2023-12-14T12:22:07;101043.13;;;8.35;100.00
71361;BME280;59166;48.908;1.870;2023-12-14T12:27:09;101048.88;;;8.39;100.00
71361;BME280;59166;48.908;1.870;2023-12-14T12:32:11;101058.22;;;8.36;100.00
71361;BME280;59166;48.908;1.870;2023-12-14T12:43:08;101058.78;;;8.26;100.00
71361;BME280;59166;48.908;1.870;2023-12-14T12:48:09;101060.28;;;8.22;100.00
71361;BME280;59166;48.908;1.870;2023-12-14T12:53:23;101057.88;;;8.14;100.00
71361;BME280;59166;48.908;1.870;2023-12-14T13:04:24;101064.06;;;8.33;100.00
71361;BME280;59166;48.908;1.870;2023-12-14T13:09:30;101067.13;;;8.37;100.00
71361;BME280;59166;48.908;1.870;2023-12-14T13:14:52;101074.47;;;8.29;100.00
71361;BME280;59166;48.908;1.870;2023-12-14T13:21:18;101072.69;;;8.23;100.00
71361;BME280;59166;48.908;1.870;2023-12-14T13:25:39;101069.63;;;8.20;100.00
71361;BME280;59166;48.908;1.870;2023-12-14T13:30:47;101072.31;;;8.20;100.00
71361;BME280;59166;48.908;1.870;2023-12-14T13:35:52;101076.34;;;8.29;100.00
71361;BME280;59166;48.908;1.870;2023-12-14T13:40:57;101079.69;;;8.43;100.00
71361;BME280;59166;48.908;1.870;2023-12-14T13:57:10;101090.91;;;8.69;100.00
71361;BME280;59166;48.908;1.870;2023-12-14T14:07:36;101087.75;;;8.72;100.00
71361;BME280;59166;48.908;1.870;2023-12-14T14:12:38;101098.31;;;8.74;100.00
71361;BME280;59166;48.908;1.870;2023-12-14T14:17:45;101106.22;;;8.57;100.00
71361;BME280;59166;48.908;1.870;2023-12-14T14:23:07;101112.28;;;8.53;100.00
71361;BME280;59166;48.908;1.870;2023-12-14T14:28:10;101121.25;;;8.47;100.00
71361;BME280;59166;48.908;1.870;2023-12-14T14:33:24;101120.25;;;8.59;100.00
71361;BME280;59166;48.908;1.870;2023-12-14T14:38:28;101129.34;;;8.47;100.00
71361;BME280;59166;48.908;1.870;2023-12-14T14:49:22;101152.94;;;8.45;100.00
71361;BME280;59166;48.908;1.870;2023-12-14T14:54:45;101160.06;;;8.39;100.00
71361;BME280;59166;48.908;1.870;2023-12-14T15:00:16;101177.06;;;8.40;100.00
71361;BME280;59166;48.908;1.870;2023-12-14T15:11:00;101190.81;;;8.31;100.00
71361;BME280;59166;48.908;1.870;2023-12-14T15:16:19;101196.56;;;8.35;100.00
71361;BME280;59166;48.908;1.870;2023-12-14T15:27:13;101199.69;;;8.32;100.00
71361;BME280;59166;48.908;1.870;2023-12-14T15:32:29;101201.63;;;8.25;100.00
71361;BME280;59166;48.908;1.870;2023-12-14T15:38:06;101215.09;;;8.25;100.00
71361;BME280;59166;48.908;1.870;2023-12-14T15:43:39;101223.94;;;8.32;100.00
71361;BME280;59166;48.908;1.870;2023-12-14T15:48:49;101230.72;;;8.16;100.00
71361;BME280;59166;48.908;1.870;2023-12-14T15:59:31;101243.44;;;8.27;100.00
71361;BME280;59166;48.908;1.870;2023-12-14T16:04:38;101252.41;;;8.21;100.00
71361;BME280;59166;48.908;1.870;2023-12-14T16:36:55;101279.81;;;8.12;100.00
71361;BME280;59166;48.908;1.870;2023-12-14T16:42:01;101287.06;;;8.11;100.00
71361;BME280;59166;48.908;1.870;2023-12-14T16:47:13;101296.09;;;8.23;100.00
71361;BME280;59166;48.908;1.870;2023-12-14T16:52:16;101292.44;;;8.11;100.00
71361;BME280;59166;48.908;1.870;2023-12-14T16:57:18;101302.31;;;8.17;100.00
71361;BME280;59166;48.908;1.870;2023-12-14T17:02:20;101317.28;;;8.13;100.00
71361;BME280;59166;48.908;1.870;2023-12-14T17:07:20;101318.72;;;8.16;100.00
71361;BME280;59166;48.908;1.870;2023-12-14T17:12:23;101320.19;;;8.12;100.00
71361;BME280;59166;48.908;1.870;2023-12-14T17:17:24;101328.13;;;8.00;100.00
71361;BME280;59166;48.908;1.870;2023-12-14T17:22:25;101333.91;;;8.04;100.00
71361;BME280;59166;48.908;1.870;2023-12-14T17:27:32;101340.53;;;8.01;100.00
71361;BME280;59166;48.908;1.870;2023-12-14T17:32:33;101331.22;;;8.04;100.00
71361;BME280;59166;48.908;1.870;2023-12-14T17:37:33;101333.09;;;8.03;100.00
71361;BME280;59166;48.908;1.870;2023-12-14T17:42:36;101342.03;;;7.97;100.00
71361;BME280;59166;48.908;1.870;2023-12-14T17:47:40;101353.41;;;7.99;100.00
71361;BME280;59166;48.908;1.870;2023-12-14T17:52:40;101365.59;;;8.02;100.00
71361;BME280;59166;48.908;1.870;2023-12-14T17:57:43;101362.59;;;7.85;100.00
71361;BME280;59166;48.908;1.870;2023-12-14T18:02:44;101364.22;;;7.93;100.00
71361;BME280;59166;48.908;1.870;2023-12-14T18:07:48;101365.88;;;7.87;100.00
71361;BME280;59166;48.908;1.870;2023-12-14T18:12:53;101385.66;;;8.06;100.00
71361;BME280;59166;48.908;1.870;2023-12-14T18:17:54;101385.94;;;7.91;100.00
71361;BME280;59166;48.908;1.870;2023-12-14T18:22:55;101378.59;;;7.73;100.00
71361;BME280;59166;48.908;1.870;2023-12-14T18:27:57;101386.56;;;7.87;100.00
71361;BME280;59166;48.908;1.870;2023-12-14T18:32:58;101390.75;;;7.83;100.00
71361;BME280;59166;48.908;1.870;2023-12-14T18:37:59;101384.56;;;7.82;100.00
71361;BME280;59166;48.908;1.870;2023-12-14T18:43:01;101377.09;;;7.84;100.00
71361;BME280;59166;48.908;1.870;2023-12-14T18:48:03;101369.50;;;7.74;100.00
71361;BME280;59166;48.908;1.870;2023-12-14T18:53:04;101367.63;;;7.75;100.00
71361;BME280;59166;48.908;1.870;2023-12-14T18:58:11;101373.59;;;7.77;100.00
71361;BME280;59166;48.908;1.870;2023-12-14T19:03:14;101389.75;;;7.77;100.00
71361;BME280;59166;48.908;1.870;2023-12-14T19:08:15;101399.03;;;7.81;100.00
71361;BME280;59166;48.908;1.870;2023-12-14T19:13:19;101409.78;;;7.81;100.00
71361;BME280;59166;48.908;1.870;2023-12-14T19:18:35;101426.56;;;7.83;100.00
71361;BME280;59166;48.908;1.870;2023-12-14T19:23:57;101437.13;;;7.78;100.00
71361;BME280;59166;48.908;1.870;2023-12-14T19:29:00;101438.13;;;7.84;100.00
71361;BME280;59166;48.908;1.870;2023-12-14T19:34:01;101452.75;;;7.94;100.00
71361;BME280;59166;48.908;1.870;2023-12-14T19:39:02;101450.34;;;7.86;100.00
71361;BME280;59166;48.908;1.870;2023-12-14T19:44:05;101457.59;;;7.86;100.00
71361;BME280;59166;48.908;1.870;2023-12-14T19:49:09;101458.44;;;7.79;100.00
71361;BME280;59166;48.908;1.870;2023-12-14T19:54:12;101457.78;;;7.84;100.00
71361;BME280;59166;48.908;1.870;2023-12-14T19:59:21;101461.94;;;7.80;100.00
71361;BME280;59166;48.908;1.870;2023-12-14T20:04:22;101473.13;;;7.77;100.00
71361;BME280;59166;48.908;1.870;2023-12-14T20:09:23;101481.41;;;7.82;100.00
71361;BME280;59166;48.908;1.870;2023-12-14T20:14:26;101477.66;;;7.83;100.00
71361;BME280;59166;48.908;1.870;2023-12-14T20:19:26;101474.34;;;7.81;100.00
71361;BME280;59166;48.908;1.870;2023-12-14T20:24:27;101479.56;;;7.76;100.00
71361;BME280;59166;48.908;1.870;2023-12-14T20:29:29;101478.72;;;7.75;100.00
71361;BME280;59166;48.908;1.870;2023-12-14T20:34:30;101490.91;;;7.78;100.00
71361;BME280;59166;48.908;1.870;2023-12-14T20:39:31;101491.34;;;7.75;100.00
71361;BME280;59166;48.908;1.870;2023-12-14T20:44:34;101496.94;;;7.73;100.00
71361;BME280;59166;48.908;1.870;2023-12-14T20:49:38;101496.88;;;7.87;100.00
71361;BME280;59166;48.908;1.870;2023-12-14T20:54:39;101507.25;;;7.83;100.00
71361;BME280;59166;48.908;1.870;2023-12-14T20:59:42;101512.63;;;7.76;100.00
71361;BME280;59166;48.908;1.870;2023-12-14T21:04:43;101509.78;;;7.71;100.00
71361;BME280;59166;48.908;1.870;2023-12-14T21:09:46;101511.63;;;7.71;100.00
71361;BME280;59166;48.908;1.870;2023-12-14T21:14:48;101513.91;;;7.67;100.00
71361;BME280;59166;48.908;1.870;2023-12-14T21:19:51;101522.38;;;7.71;100.00
71361;BME280;59166;48.908;1.870;2023-12-14T21:24:52;101520.72;;;7.70;100.00
71361;BME280;59166;48.908;1.870;2023-12-14T21:29:55;101520.72;;;7.70;100.00
71361;BME280;59166;48.908;1.870;2023-12-14T21:34:56;101532.31;;;7.70;100.00
71361;BME280;59166;48.908;1.870;2023-12-14T21:39:56;101529.84;;;7.69;100.00
71361;BME280;59166;48.908;1.870;2023-12-14T21:44:59;101543.06;;;7.77;100.00
71361;BME280;59166;48.908;1.870;2023-12-14T21:50:00;101542.44;;;7.75;100.00
71361;BME280;59166;48.908;1.870;2023-12-14T21:55:01;101538.13;;;7.67;100.00
71361;BME280;59166;48.908;1.870;2023-12-14T22:00:04;101546.41;;;7.72;100.00
71361;BME280;59166;48.908;1.870;2023-12-14T22:05:05;101548.84;;;7.80;100.00
71361;BME280;59166;48.908;1.870;2023-12-14T22:10:07;101554.84;;;7.89;100.00
71361;BME280;59166;48.908;1.870;2023-12-14T22:15:10;101553.16;;;7.88;100.00
71361;BME280;59166;48.908;1.870;2023-12-14T22:20:11;101563.75;;;7.76;100.00
71361;BME280;59166;48.908;1.870;2023-12-14T22:25:12;101564.97;;;7.87;100.00
71361;BME280;59166;48.908;1.870;2023-12-14T22:30:14;101571.81;;;7.76;100.00
71361;BME280;59166;48.908;1.870;2023-12-14T22:35:15;101585.06;;;7.78;100.00
71361;BME280;59166;48.908;1.870;2023-12-14T22:40:17;101576.59;;;7.68;100.00
71361;BME280;59166;48.908;1.870;2023-12-14T22:45:19;101568.53;;;7.74;100.00
71361;BME280;59166;48.908;1.870;2023-12-14T22:50:20;101586.31;;;7.75;100.00
71361;BME280;59166;48.908;1.870;2023-12-14T22:55:22;101599.31;;;7.85;100.00
71361;BME280;59166;48.908;1.870;2023-12-14T23:00:27;101596.41;;;7.87;100.00
71361;BME280;59166;48.908;1.870;2023-12-14T23:05:28;101606.13;;;7.94;100.00
71361;BME280;59166;48.908;1.870;2023-12-14T23:10:29;101612.97;;;7.97;100.00
71361;BME280;59166;48.908;1.870;2023-12-14T23:15:32;101627.00;;;8.05;100.00
71361;BME280;59166;48.908;1.870;2023-12-14T23:20:33;101638.19;;;8.09;100.00
71361;BME280;59166;48.908;1.870;2023-12-14T23:25:34;101653.06;;;8.11;100.00
71361;BME280;59166;48.908;1.870;2023-12-14T23:30:37;101661.13;;;8.11;100.00
71361;BME280;59166;48.908;1.870;2023-12-14T23:35:38;101654.53;;;8.07;100.00
71361;BME280;59166;48.908;1.870;2023-12-14T23:40:39;101662.38;;;8.15;100.00
71361;BME280;59166;48.908;1.870;2023-12-14T23:45:41;101683.91;;;8.15;100.00
71361;BME280;59166;48.908;1.870;2023-12-14T23:50:42;101680.22;;;8.03;100.00
71361;BME280;59166;48.908;1.870;2023-12-14T23:55:43;101679.38;;;8.03;100.00
